Terminal Aerodrome Forecast
Issued by NWS Louisville, KY

Home | Current Version | Previous Version | Text Only | Print | Product List | Glossary On
Versions: 1 2 3 4 5 6 7 8 9 10 11 12 13 14 15 16 17 18 19 20
000
FTUS43 KLMK 250522
TAFSDF
TAF
KSDF 250522Z 2506/2612 22004KT P6SM SCT250
      TEMPO 2510/2513 5SM HZ
     FM251500 24005KT P6SM SCT050 SCT250 PROB30 2518/2524 VRB15G25KT
      3SM TSRA BR BKN035CB
     FM260000 VRB04KT P6SM SCT050 BKN250=

USA.gov is the U.S. government's official web portal to all federal, state and local government web resources and services.